createdAt,value
2023-04-06T00:02:55.418Z,23.40
2023-04-06T00:05:58.522Z,20.60
2023-04-06T00:09:01.700Z,18.50
2023-04-06T00:12:04.885Z,16.20
2023-04-06T00:15:08.458Z,15.40
2023-04-06T00:18:11.760Z,15.00
2023-04-06T00:21:15.683Z,15.20
2023-04-06T00:24:18.727Z,13.80
2023-04-06T00:27:21.812Z,14.90
2023-04-06T00:30:24.906Z,14.60
2023-04-06T00:33:28.137Z,13.70
2023-04-06T00:36:31.375Z,13.50
2023-04-06T00:39:34.361Z,14.10
2023-04-06T00:42:37.773Z,13.60
2023-04-06T00:45:42.270Z,14.50
2023-04-06T00:48:45.488Z,13.50
2023-04-06T00:51:48.602Z,13.80
2023-04-06T00:54:51.904Z,14.80
2023-04-06T00:57:59.506Z,14.70
2023-04-06T01:01:03.223Z,13.80
2023-04-06T01:04:06.339Z,16.30
2023-04-06T01:07:14.531Z,15.30
2023-04-06T01:10:27.606Z,15.80
2023-04-06T01:13:47.072Z,14.70
2023-04-06T01:17:05.277Z,14.40
2023-04-06T01:20:10.906Z,14.90
2023-04-06T01:23:14.659Z,15.50
2023-04-06T01:26:22.214Z,14.50
2023-04-06T01:29:27.482Z,14.90
2023-04-06T01:32:31.253Z,14.60
2023-04-06T01:35:34.562Z,15.90
2023-04-06T01:38:49.646Z,15.00
2023-04-06T01:41:53.326Z,15.80
2023-04-06T01:44:57.368Z,14.50
2023-04-06T01:48:00.862Z,17.40
2023-04-06T01:51:05.069Z,15.30
2023-04-06T01:54:10.367Z,15.30
2023-04-06T01:57:30.655Z,14.30
2023-04-06T02:00:42.620Z,13.90
2023-04-06T02:03:46.321Z,14.90
2023-04-06T02:06:49.572Z,14.60
2023-04-06T02:09:56.583Z,16.90
2023-04-06T02:13:04.596Z,15.10
2023-04-06T02:16:08.033Z,16.30
2023-04-06T02:19:11.062Z,15.00
2023-04-06T02:22:14.108Z,14.90
2023-04-06T02:25:17.282Z,14.20
2023-04-06T02:28:20.399Z,14.60
2023-04-06T02:31:23.560Z,13.10
2023-04-06T02:34:27.070Z,13.30
2023-04-06T02:37:30.447Z,14.00
2023-04-06T02:40:34.935Z,14.60
2023-04-06T02:43:45.408Z,13.90
2023-04-06T02:46:53.855Z,13.10
2023-04-06T02:49:57.966Z,12.60
2023-04-06T02:53:01.189Z,13.60
2023-04-06T02:56:04.457Z,12.90
2023-04-06T02:59:15.647Z,13.10
2023-04-06T03:02:25.195Z,13.00
2023-04-06T03:05:29.895Z,13.30
2023-04-06T03:08:33.011Z,13.30
2023-04-06T03:11:36.188Z,12.80
2023-04-06T03:14:39.254Z,12.90
2023-04-06T03:17:42.599Z,12.50
2023-04-06T03:20:50.475Z,12.80
2023-04-06T03:23:54.211Z,13.60
2023-04-06T03:26:57.555Z,13.50
2023-04-06T03:30:01.279Z,13.10
2023-04-06T03:33:08.099Z,13.00
2023-04-06T03:36:15.787Z,12.90
2023-04-06T03:39:19.815Z,14.30
2023-04-06T03:42:22.813Z,13.30
2023-04-06T03:45:29.360Z,13.60
2023-04-06T03:48:32.511Z,13.10
2023-04-06T03:51:38.981Z,14.80
2023-04-06T03:54:42.094Z,12.50
2023-04-06T03:57:47.282Z,12.80
2023-04-06T04:00:50.501Z,12.30
2023-04-06T04:03:54.495Z,12.40
2023-04-06T04:06:57.602Z,12.80
2023-04-06T04:10:00.741Z,12.50
2023-04-06T04:13:03.921Z,12.70
2023-04-06T04:16:07.515Z,13.30
2023-04-06T04:19:12.214Z,12.50
2023-04-06T04:22:15.303Z,12.30
2023-04-06T04:25:18.629Z,13.60
2023-04-06T04:28:23.827Z,14.60
2023-04-06T04:31:29.230Z,13.30
2023-04-06T04:34:34.622Z,15.90
2023-04-06T04:37:37.779Z,18.40
2023-04-06T04:40:41.014Z,19.10
2023-04-06T04:43:45.802Z,17.70
2023-04-06T04:46:49.702Z,23.40
2023-04-06T04:49:53.901Z,26.90
2023-04-06T04:52:59.050Z,28.20
2023-04-06T04:56:03.715Z,31.60
2023-04-06T04:59:07.451Z,27.60
2023-04-06T05:02:12.792Z,25.50
2023-04-06T05:05:23.429Z,25.10
2023-04-06T05:08:26.945Z,26.10
2023-04-06T05:11:30.163Z,34.60
2023-04-06T05:14:36.132Z,46.90
2023-04-06T05:17:40.131Z,46.00
2023-04-06T05:20:44.284Z,39.20
2023-04-06T05:23:48.265Z,44.90
2023-04-06T05:26:51.564Z,72.00
2023-04-06T05:29:58.246Z,84.30
2023-04-06T05:33:02.728Z,74.40
2023-04-06T05:36:14.843Z,72.40
2023-04-06T05:39:19.996Z,74.80
2023-04-06T05:42:28.091Z,76.00
2023-04-06T05:45:36.023Z,80.30
2023-04-06T05:48:41.719Z,77.30
2023-04-06T05:51:45.817Z,65.00
2023-04-06T05:54:50.029Z,49.20
2023-04-06T05:57:53.266Z,53.70
2023-04-06T06:01:04.668Z,41.00
2023-04-06T06:04:14.270Z,42.00
2023-04-06T06:07:17.786Z,37.40
2023-04-06T06:10:27.034Z,37.90
2023-04-06T06:13:30.317Z,37.90
2023-04-06T06:16:34.000Z,37.10
2023-04-06T06:19:37.479Z,34.90
2023-04-06T06:22:42.476Z,29.90
2023-04-06T06:25:48.777Z,30.90
2023-04-06T06:28:52.181Z,30.30
2023-04-06T06:31:55.425Z,28.40
2023-04-06T06:34:59.585Z,32.40
2023-04-06T06:38:04.636Z,35.40
2023-04-06T06:41:08.847Z,33.40
2023-04-06T06:44:12.558Z,26.50
2023-04-06T06:47:16.538Z,23.40
2023-04-06T06:50:20.941Z,16.30
2023-04-06T06:53:25.057Z,14.80
2023-04-06T06:56:29.019Z,13.60
2023-04-06T06:59:32.619Z,13.90
2023-04-06T07:02:39.417Z,12.50
2023-04-06T07:05:54.293Z,11.90
2023-04-06T07:08:58.216Z,12.00
2023-04-06T07:12:02.022Z,10.90
2023-04-06T07:15:06.158Z,9.80
2023-04-06T07:18:10.499Z,10.40
2023-04-06T07:21:14.034Z,8.30
2023-04-06T07:24:17.181Z,7.40
2023-04-06T07:27:20.729Z,7.40
2023-04-06T07:30:26.123Z,7.30
2023-04-06T07:33:31.024Z,7.90
2023-04-06T07:36:34.675Z,8.00
2023-04-06T07:39:38.019Z,9.60
2023-04-06T07:42:41.426Z,10.60
2023-04-06T07:45:45.069Z,10.20
2023-04-06T07:48:48.373Z,10.40
2023-04-06T07:51:51.450Z,12.30
2023-04-06T07:54:54.597Z,9.50
2023-04-06T07:57:57.698Z,8.80
2023-04-06T08:01:00.794Z,8.10
2023-04-06T08:04:04.069Z,8.10
2023-04-06T08:07:07.877Z,7.20
2023-04-06T08:10:11.489Z,6.70
2023-04-06T08:13:17.371Z,8.00
2023-04-06T08:16:20.873Z,11.30
2023-04-06T08:19:24.110Z,8.20
2023-04-06T08:22:27.547Z,9.30
2023-04-06T08:25:30.786Z,8.70
2023-04-06T08:28:35.463Z,8.60
2023-04-06T08:31:38.716Z,7.60
2023-04-06T08:34:42.085Z,8.90
2023-04-06T08:37:45.448Z,12.20
2023-04-06T08:40:50.876Z,8.70
2023-04-06T08:43:57.399Z,7.20
2023-04-06T08:47:01.531Z,8.00
2023-04-06T08:50:05.804Z,8.20
2023-04-06T08:53:09.404Z,8.10
2023-04-06T08:56:13.248Z,7.60
2023-04-06T08:59:16.883Z,8.30
2023-04-06T09:02:22.074Z,8.90
2023-04-06T09:05:30.771Z,8.10
2023-04-06T09:08:43.126Z,6.00
2023-04-06T09:11:53.238Z,8.40
2023-04-06T09:14:58.210Z,8.90
2023-04-06T09:18:06.763Z,8.00
2023-04-06T09:21:14.055Z,9.20
2023-04-06T09:24:23.950Z,8.50
2023-04-06T09:27:36.029Z,7.50
2023-04-06T09:30:49.420Z,7.90
2023-04-06T09:33:53.707Z,8.50
2023-04-06T09:36:56.967Z,7.50
2023-04-06T09:40:06.480Z,7.70
2023-04-06T09:43:10.985Z,7.50
2023-04-06T09:46:15.333Z,7.80
2023-04-06T09:49:24.227Z,7.20
2023-04-06T09:52:32.231Z,6.20
2023-04-06T09:55:43.171Z,7.60
2023-04-06T09:58:51.377Z,9.30
2023-04-06T10:01:59.472Z,7.70
2023-04-06T10:05:17.695Z,8.30
2023-04-06T10:08:27.297Z,6.80
2023-04-06T10:11:31.357Z,7.60
2023-04-06T10:14:38.768Z,7.80
2023-04-06T10:17:42.332Z,6.50
2023-04-06T10:20:57.179Z,6.70
2023-04-06T10:24:03.278Z,5.70
2023-04-06T10:27:08.096Z,5.80
2023-04-06T10:30:11.758Z,5.80
2023-04-06T10:33:20.066Z,6.40
2023-04-06T10:36:26.614Z,5.60
2023-04-06T10:39:29.815Z,6.60
2023-04-06T10:42:42.213Z,6.70
2023-04-06T10:48:48.716Z,4.90
2023-04-06T10:51:55.966Z,5.50
2023-04-06T10:54:59.563Z,5.40
2023-04-06T10:58:02.687Z,6.20
2023-04-06T11:01:05.836Z,5.80
2023-04-06T11:04:10.898Z,5.10
2023-04-06T11:07:27.863Z,5.10
2023-04-06T11:10:31.339Z,5.90
2023-04-06T11:13:46.160Z,5.40
2023-04-06T11:16:51.170Z,5.30
2023-04-06T11:19:55.131Z,5.40
2023-04-06T11:23:00.147Z,5.50
2023-04-06T11:26:03.615Z,5.70
2023-04-06T11:29:07.493Z,6.20
2023-04-06T11:32:10.585Z,5.60
2023-04-06T11:35:25.976Z,5.90
2023-04-06T11:38:29.209Z,5.70
2023-04-06T11:41:34.517Z,6.40
2023-04-06T11:44:40.184Z,7.00
2023-04-06T11:47:44.829Z,5.40
2023-04-06T11:50:51.670Z,5.10
2023-04-06T11:53:55.481Z,7.20
2023-04-06T11:56:58.691Z,7.00
2023-04-06T12:00:01.928Z,6.60
2023-04-06T12:03:05.102Z,5.80
2023-04-06T12:06:08.577Z,5.80
2023-04-06T12:09:11.736Z,6.50
2023-04-06T12:12:16.283Z,6.20
2023-04-06T12:15:19.572Z,6.80
2023-04-06T12:18:22.909Z,5.70
2023-04-06T12:21:34.655Z,7.60
2023-04-06T12:24:38.002Z,7.30
2023-04-06T12:27:41.563Z,6.40
2023-04-06T12:30:44.781Z,7.90
2023-04-06T12:33:49.828Z,6.80
2023-04-06T12:36:53.124Z,8.40
2023-04-06T12:39:56.283Z,8.60
2023-04-06T12:42:59.645Z,7.20
2023-04-06T12:46:02.831Z,6.60
2023-04-06T12:49:06.187Z,8.70
2023-04-06T12:52:09.746Z,7.90
2023-04-06T12:55:12.920Z,9.00
2023-04-06T12:58:17.738Z,9.00
2023-04-06T13:01:21.352Z,9.20
2023-04-06T13:04:24.540Z,11.30
2023-04-06T13:07:27.661Z,8.20
2023-04-06T13:10:31.111Z,12.10
2023-04-06T13:13:34.148Z,16.20
2023-04-06T13:16:38.540Z,8.90
2023-04-06T13:19:42.453Z,9.60
2023-04-06T13:22:45.552Z,7.70
2023-04-06T13:25:48.710Z,7.00
2023-04-06T13:28:51.879Z,7.90
2023-04-06T13:31:55.201Z,7.40
2023-04-06T13:34:58.642Z,8.20
2023-04-06T13:38:01.989Z,7.90
2023-04-06T13:41:05.466Z,10.20
2023-04-06T13:44:08.757Z,8.60
2023-04-06T13:47:13.454Z,12.50
2023-04-06T13:50:16.623Z,11.00
2023-04-06T13:53:19.747Z,9.20
2023-04-06T13:56:22.900Z,10.50
2023-04-06T13:59:26.268Z,8.30
2023-04-06T14:02:29.749Z,7.70
2023-04-06T14:05:34.105Z,8.20
2023-04-06T14:08:39.537Z,9.20
2023-04-06T14:11:42.654Z,14.20
2023-04-06T14:14:45.843Z,9.30
2023-04-06T14:17:49.236Z,8.70
2023-04-06T14:20:58.430Z,10.90
2023-04-06T14:24:02.812Z,26.80
2023-04-06T14:27:06.026Z,39.30
2023-04-06T14:30:09.890Z,17.80
2023-04-06T14:33:13.433Z,13.10
2023-04-06T14:36:16.566Z,20.50
2023-04-06T14:39:19.752Z,11.40
2023-04-06T14:42:22.926Z,10.80
2023-04-06T14:45:26.282Z,7.80
2023-04-06T14:48:29.757Z,6.90
2023-04-06T14:51:35.278Z,8.40
2023-04-06T14:54:38.301Z,9.10
2023-04-06T14:57:41.527Z,7.50
2023-04-06T15:00:44.719Z,12.20
2023-04-06T15:03:48.546Z,13.10
2023-04-06T15:06:51.908Z,11.60
2023-04-06T15:09:54.854Z,10.20
2023-04-06T15:12:57.912Z,7.90
2023-04-06T15:16:02.093Z,8.90
2023-04-06T15:19:05.256Z,8.10
2023-04-06T15:22:08.231Z,9.30
2023-04-06T15:25:11.638Z,11.30
2023-04-06T15:28:14.663Z,8.90
2023-04-06T15:31:36.034Z,11.10
2023-04-06T15:34:41.313Z,12.60
2023-04-06T15:37:44.309Z,8.70
2023-04-06T15:40:49.571Z,8.80
2023-04-06T15:43:53.882Z,10.70
2023-04-06T15:46:57.679Z,9.00
2023-04-06T15:50:01.000Z,7.80
2023-04-06T15:53:04.225Z,6.30
2023-04-06T15:56:11.113Z,8.00
2023-04-06T15:59:15.458Z,8.10
2023-04-06T16:02:20.301Z,10.50
2023-04-06T16:05:23.457Z,11.80
2023-04-06T16:08:26.650Z,11.20
2023-04-06T16:11:29.887Z,12.70
2023-04-06T16:14:33.543Z,14.80
2023-04-06T16:17:36.704Z,19.00
2023-04-06T16:20:40.723Z,20.90
2023-04-06T16:23:45.850Z,20.00
2023-04-06T16:26:49.663Z,19.80
2023-04-06T16:29:53.122Z,18.30
2023-04-06T16:32:58.024Z,21.30
2023-04-06T16:36:01.778Z,20.30
2023-04-06T16:39:05.077Z,17.30
2023-04-06T16:42:08.060Z,18.00
2023-04-06T16:45:11.895Z,15.60
2023-04-06T16:48:14.854Z,10.80
2023-04-06T16:51:18.908Z,10.90
2023-04-06T16:54:21.935Z,10.20
2023-04-06T16:57:29.498Z,9.10
2023-04-06T17:00:32.868Z,8.00
2023-04-06T17:03:36.142Z,9.90
2023-04-06T17:06:39.160Z,10.40
2023-04-06T17:09:42.644Z,12.30
2023-04-06T17:12:47.252Z,12.70
2023-04-06T17:15:50.421Z,14.20
2023-04-06T17:18:53.962Z,15.10
2023-04-06T17:21:57.209Z,17.80
2023-04-06T17:25:02.604Z,18.60
2023-04-06T17:28:05.911Z,15.10
2023-04-06T17:31:10.628Z,15.50
2023-04-06T17:34:13.869Z,16.90
2023-04-06T17:37:17.320Z,17.20
2023-04-06T17:40:20.824Z,19.40
2023-04-06T17:43:24.033Z,18.60
2023-04-06T17:46:27.330Z,18.40
2023-04-06T17:49:31.267Z,18.50
2023-04-06T17:52:34.292Z,20.30
2023-04-06T17:55:37.608Z,18.60
2023-04-06T17:58:41.065Z,20.80
2023-04-06T18:01:44.098Z,16.40
2023-04-06T18:04:47.681Z,17.50
2023-04-06T18:07:53.359Z,15.20
2023-04-06T18:10:56.424Z,15.70
2023-04-06T18:14:00.294Z,14.50
2023-04-06T18:17:03.624Z,16.60
2023-04-06T18:20:07.404Z,18.40
2023-04-06T18:23:10.336Z,17.30
2023-04-06T18:26:18.559Z,17.60
2023-04-06T18:29:21.942Z,13.80
2023-04-06T18:32:24.961Z,13.90
2023-04-06T18:35:27.975Z,13.70
2023-04-06T18:38:31.120Z,13.80
2023-04-06T18:41:34.955Z,12.70
2023-04-06T18:44:38.238Z,12.40
2023-04-06T18:47:41.298Z,14.60
2023-04-06T18:50:54.434Z,16.50
2023-04-06T18:53:58.246Z,16.40
2023-04-06T18:57:04.237Z,15.70
2023-04-06T19:00:08.431Z,15.70
2023-04-06T19:03:11.554Z,14.40
2023-04-06T19:06:14.659Z,13.50
2023-04-06T19:09:17.630Z,14.60
2023-04-06T19:12:20.628Z,14.10
2023-04-06T19:15:23.700Z,13.80
2023-04-06T19:18:27.106Z,15.70
2023-04-06T19:21:30.094Z,14.80
2023-04-06T19:24:33.284Z,15.50
2023-04-06T19:27:36.481Z,16.50
2023-04-06T19:30:41.267Z,17.60
2023-04-06T19:33:45.397Z,17.00
2023-04-06T19:36:48.425Z,18.90
2023-04-06T19:39:51.418Z,17.30
2023-04-06T19:42:54.424Z,20.60
2023-04-06T19:45:57.530Z,19.30
2023-04-06T19:49:01.476Z,20.30
2023-04-06T19:52:05.797Z,17.40
2023-04-06T19:55:13.367Z,18.90
2023-04-06T19:58:16.736Z,15.70
2023-04-06T20:01:19.805Z,15.90
2023-04-06T20:04:23.941Z,16.10
2023-04-06T20:07:27.144Z,15.70
2023-04-06T20:10:30.514Z,14.60
2023-04-06T20:13:34.472Z,15.30
2023-04-06T20:16:37.823Z,15.60
2023-04-06T20:19:40.924Z,17.30
2023-04-06T20:22:43.935Z,18.20
2023-04-06T20:25:47.162Z,17.70
2023-04-06T20:28:50.278Z,18.80
2023-04-06T20:31:53.289Z,17.80
2023-04-06T20:34:56.691Z,18.20
2023-04-06T20:37:59.735Z,17.40
2023-04-06T20:41:02.824Z,18.50
2023-04-06T20:44:06.291Z,18.80
2023-04-06T20:47:09.358Z,18.90
2023-04-06T20:50:12.530Z,17.30
2023-04-06T20:53:16.487Z,16.30
2023-04-06T20:56:21.869Z,16.00
2023-04-06T20:59:26.574Z,15.40
2023-04-06T21:02:29.692Z,17.40
2023-04-06T21:05:32.892Z,17.00
2023-04-06T21:08:36.369Z,18.70
2023-04-06T21:11:39.343Z,17.80
2023-04-06T21:14:42.507Z,18.80
2023-04-06T21:17:45.559Z,19.30
2023-04-06T21:20:48.729Z,17.50
2023-04-06T21:23:53.057Z,17.60
2023-04-06T21:26:56.052Z,18.30
2023-04-06T21:29:59.304Z,18.20
2023-04-06T21:33:03.684Z,17.30
2023-04-06T21:36:07.730Z,19.10
2023-04-06T21:39:10.906Z,17.10
2023-04-06T21:42:13.989Z,17.00
2023-04-06T21:45:17.073Z,17.30
2023-04-06T21:48:20.490Z,18.10
2023-04-06T21:51:24.310Z,17.90
2023-04-06T21:54:32.870Z,17.40
2023-04-06T21:57:36.376Z,16.80
2023-04-06T22:00:40.528Z,18.10
2023-04-06T22:03:44.227Z,17.50
2023-04-06T22:06:47.974Z,16.80
2023-04-06T22:09:53.709Z,17.40
2023-04-06T22:12:57.305Z,16.10
2023-04-06T22:16:00.457Z,15.70
2023-04-06T22:19:03.447Z,16.00
2023-04-06T22:22:06.491Z,14.60
2023-04-06T22:25:09.615Z,14.00
2023-04-06T22:28:12.950Z,15.60
2023-04-06T22:31:15.923Z,15.60
2023-04-06T22:34:19.194Z,15.00
2023-04-06T22:37:22.505Z,14.70
2023-04-06T22:40:25.510Z,14.80
2023-04-06T22:43:28.629Z,15.20
2023-04-06T22:46:31.624Z,14.30
2023-04-06T22:49:34.763Z,15.60
2023-04-06T22:52:37.836Z,14.60
2023-04-06T22:55:41.325Z,15.20
2023-04-06T22:58:44.302Z,14.80
2023-04-06T23:01:47.399Z,15.40
2023-04-06T23:04:50.417Z,14.80
2023-04-06T23:07:54.040Z,15.10
2023-04-06T23:10:56.994Z,16.20
2023-04-06T23:13:59.971Z,16.60
2023-04-06T23:17:03.494Z,15.70
2023-04-06T23:20:07.211Z,16.30
2023-04-06T23:23:10.553Z,16.00
2023-04-06T23:26:13.769Z,16.80
2023-04-06T23:29:16.760Z,16.70
2023-04-06T23:32:19.814Z,17.20
2023-04-06T23:35:22.830Z,16.30
2023-04-06T23:38:25.941Z,16.80
2023-04-06T23:41:29.140Z,16.50
2023-04-06T23:44:32.229Z,16.60
2023-04-06T23:47:35.310Z,18.30
2023-04-06T23:50:38.761Z,17.30
2023-04-06T23:53:41.929Z,16.80
2023-04-06T23:56:44.917Z,16.10
2023-04-06T23:59:48.070Z,17.00
